Time,TemperatureF,DewpointF,PressureIn,WindDirection,WindDirectionDegrees,WindSpeedMPH,WindSpeedGustMPH,Humidity,HourlyPrecipIn,Conditions,Clouds,dailyrainin,SolarRadiationWatts/m^2,SoftwareType,DateUTC
2013-05-21 00:00:00,72.0,60.0,-100.00,SSW,202,4.0,-999.0,65,-99.99,,,-99.99,0.000000,,2013-05-21 04:00:00,
2013-05-21 00:33:00,72.0,60.0,-100.00,SSW,202,4.0,-999.0,65,-99.99,,,-99.99,0.000000,,2013-05-21 04:33:00,
2013-05-21 00:42:00,72.0,60.0,-100.00,SSW,202,4.0,-999.0,65,-99.99,,,-99.99,0.000000,,2013-05-21 04:42:00,
2013-05-21 00:53:00,72.0,60.0,-100.00,SSW,202,4.0,-999.0,65,-99.99,,,-99.99,0.000000,,2013-05-21 04:53:00,
2013-05-21 01:00:00,71.0,60.0,-100.00,South,180,4.0,-999.0,68,-99.99,,,-99.99,0.000000,,2013-05-21 05:00:00,
2013-05-21 01:32:00,71.0,60.0,-100.00,South,180,4.0,-999.0,68,-99.99,,,-99.99,0.000000,,2013-05-21 05:32:00,
2013-05-21 01:42:00,71.0,60.0,-100.00,South,180,4.0,-999.0,68,-99.99,,,-99.99,0.000000,,2013-05-21 05:42:00,
2013-05-21 01:52:00,71.0,60.0,-100.00,South,180,4.0,-999.0,68,-99.99,,,-99.99,0.000000,,2013-05-21 05:52:00,
2013-05-21 02:00:00,73.0,62.0,-100.00,SSW,202,6.0,-999.0,67,-99.99,,,-99.99,0.000000,,2013-05-21 06:00:00,
2013-05-21 02:32:00,73.0,62.0,-100.00,SSW,202,6.0,-999.0,67,-99.99,,,-99.99,0.000000,,2013-05-21 06:32:00,
2013-05-21 02:42:00,73.0,62.0,-100.00,SSW,202,6.0,-999.0,67,-99.99,,,-99.99,0.000000,,2013-05-21 06:42:00,
2013-05-21 02:52:00,73.0,62.0,-100.00,SSW,202,6.0,-999.0,67,-99.99,,,-99.99,0.000000,,2013-05-21 06:52:00,
2013-05-21 03:00:00,73.0,63.0,-100.00,SSW,202,8.0,-999.0,69,-99.99,,,-99.99,0.000000,,2013-05-21 07:00:00,
2013-05-21 03:32:00,73.0,63.0,-100.00,SSW,202,8.0,-999.0,69,-99.99,,,-99.99,0.000000,,2013-05-21 07:32:00,
2013-05-21 03:42:00,73.0,63.0,-100.00,SSW,202,8.0,-999.0,69,-99.99,,,-99.99,0.000000,,2013-05-21 07:42:00,
2013-05-21 03:52:00,73.0,63.0,-100.00,SSW,202,8.0,-999.0,69,-99.99,,,-99.99,0.000000,,2013-05-21 07:52:00,
2013-05-21 05:00:00,72.0,63.0,-100.00,SSW,202,8.0,-999.0,72,-99.99,,,-99.99,0.000000,,2013-05-21 09:00:00,
2013-05-21 05:33:00,72.0,63.0,-100.00,SSW,202,8.0,-999.0,72,-99.99,,,-99.99,0.000000,,2013-05-21 09:33:00,
2013-05-21 05:42:00,72.0,63.0,-100.00,SSW,202,8.0,-999.0,72,-99.99,,,-99.99,0.000000,,2013-05-21 09:42:00,
2013-05-21 05:53:00,72.0,63.0,-100.00,SSW,202,8.0,-999.0,72,-99.99,,,-99.99,0.000000,,2013-05-21 09:53:00,
2013-05-21 06:00:00,72.0,63.0,-100.00,SSW,202,8.0,-999.0,73,-99.99,,,-99.99,0.000000,,2013-05-21 10:00:00,
2013-05-21 06:42:00,72.0,63.0,-100.00,SSW,202,8.0,-999.0,73,-99.99,,,-99.99,0.000000,,2013-05-21 10:42:00,
2013-05-21 06:52:00,72.0,63.0,-100.00,SSW,202,8.0,-999.0,73,-99.99,,,-99.99,0.000000,,2013-05-21 10:52:00,
2013-05-21 07:00:00,72.0,63.0,-100.00,SSW,202,8.0,-999.0,74,-99.99,,,-99.99,12.760000,,2013-05-21 11:00:00,
2013-05-21 07:42:00,72.0,63.0,-100.00,SSW,202,8.0,-999.0,74,-99.99,,,-99.99,12.760000,,2013-05-21 11:42:00,
2013-05-21 07:52:00,72.0,63.0,-100.00,SSW,202,8.0,-999.0,74,-99.99,,,-99.99,12.760000,,2013-05-21 11:52:00,
2013-05-21 08:00:00,72.0,63.0,-100.00,South,180,7.0,-999.0,74,-99.99,,,-99.99,67.279999,,2013-05-21 12:00:00,
2013-05-21 08:42:00,72.0,63.0,-100.00,South,180,7.0,-999.0,74,-99.99,,,-99.99,67.279999,,2013-05-21 12:42:00,
2013-05-21 08:52:00,72.0,63.0,-100.00,South,180,7.0,-999.0,74,-99.99,,,-99.99,67.279999,,2013-05-21 12:52:00,
2013-05-21 09:00:00,75.0,64.0,-100.00,SSW,202,10.0,-999.0,69,-99.99,,,-99.99,315.519989,,2013-05-21 13:00:00,
2013-05-21 09:42:00,75.0,64.0,-100.00,SSW,202,10.0,-999.0,69,-99.99,,,-99.99,315.519989,,2013-05-21 13:42:00,
2013-05-21 09:52:00,75.0,64.0,-100.00,SSW,202,10.0,-999.0,69,-99.99,,,-99.99,315.519989,,2013-05-21 13:52:00,
2013-05-21 10:00:00,78.0,63.0,-100.00,SW,225,12.0,-999.0,60,-99.99,,,-99.99,445.440002,,2013-05-21 14:00:00,
2013-05-21 10:42:00,78.0,63.0,-100.00,SW,225,12.0,-999.0,60,-99.99,,,-99.99,445.440002,,2013-05-21 14:42:00,
2013-05-21 10:52:00,78.0,63.0,-100.00,SW,225,12.0,-999.0,60,-99.99,,,-99.99,445.440002,,2013-05-21 14:52:00,
2013-05-21 12:00:00,79.0,57.0,-100.00,WSW,247,13.0,-999.0,46,-99.99,,,-99.99,570.719971,,2013-05-21 16:00:00,
2013-05-21 12:42:00,79.0,57.0,-100.00,WSW,247,13.0,-999.0,46,-99.99,,,-99.99,570.719971,,2013-05-21 16:42:00,
2013-05-21 12:53:00,79.0,57.0,-100.00,WSW,247,13.0,-999.0,46,-99.99,,,-99.99,570.719971,,2013-05-21 16:53:00,
2013-05-21 13:00:00,79.0,57.0,-100.00,WSW,247,10.0,-999.0,46,-99.99,,,-99.99,460.519989,,2013-05-21 17:00:00,
2013-05-21 13:44:00,79.0,57.0,-100.00,WSW,247,10.0,-999.0,46,-99.99,,,-99.99,460.519989,,2013-05-21 17:44:00,
2013-05-21 13:52:00,79.0,57.0,-100.00,WSW,247,10.0,-999.0,46,-99.99,,,-99.99,460.519989,,2013-05-21 17:52:00,
2013-05-21 14:00:00,79.0,56.0,-100.00,SW,225,10.0,-999.0,45,-99.99,,,-99.99,218.080002,,2013-05-21 18:00:00,
2013-05-21 14:32:00,79.0,56.0,-100.00,SW,225,10.0,-999.0,45,-99.99,,,-99.99,218.080002,,2013-05-21 18:32:00,
2013-05-21 14:42:00,79.0,56.0,-100.00,SW,225,10.0,-999.0,45,-99.99,,,-99.99,218.080002,,2013-05-21 18:42:00,
2013-05-21 14:52:00,79.0,56.0,-100.00,SW,225,10.0,-999.0,45,-99.99,,,-99.99,218.080002,,2013-05-21 18:52:00,
2013-05-21 15:00:00,81.0,56.0,-100.00,WSW,247,12.0,-999.0,41,-99.99,,,-99.99,568.400024,,2013-05-21 19:00:00,
2013-05-21 15:32:00,81.0,56.0,-100.00,WSW,247,12.0,-999.0,41,-99.99,,,-99.99,568.400024,,2013-05-21 19:32:00,
2013-05-21 15:42:00,81.0,56.0,-100.00,WSW,247,12.0,-999.0,41,-99.99,,,-99.99,568.400024,,2013-05-21 19:42:00,
2013-05-21 15:52:00,81.0,56.0,-100.00,WSW,247,12.0,-999.0,41,-99.99,,,-99.99,568.400024,,2013-05-21 19:52:00,
2013-05-21 16:00:00,85.0,54.0,-100.00,WSW,247,13.0,-999.0,35,-99.99,,,-99.99,741.239990,,2013-05-21 20:00:00,
2013-05-21 16:33:00,85.0,54.0,-100.00,WSW,247,13.0,-999.0,35,-99.99,,,-99.99,741.239990,,2013-05-21 20:33:00,
2013-05-21 16:42:00,85.0,54.0,-100.00,WSW,247,13.0,-999.0,35,-99.99,,,-99.99,741.239990,,2013-05-21 20:42:00,
2013-05-21 16:52:00,85.0,54.0,-100.00,WSW,247,13.0,-999.0,35,-99.99,,,-99.99,741.239990,,2013-05-21 20:52:00,
2013-05-21 17:00:00,84.0,54.0,-100.00,WSW,247,14.0,-999.0,35,-99.99,,,-99.99,451.239990,,2013-05-21 21:00:00,
2013-05-21 17:33:00,84.0,54.0,-100.00,WSW,247,14.0,-999.0,35,-99.99,,,-99.99,451.239990,,2013-05-21 21:33:00,
2013-05-21 17:44:00,84.0,54.0,-100.00,WSW,247,14.0,-999.0,35,-99.99,,,-99.99,451.239990,,2013-05-21 21:44:00,
2013-05-21 17:54:00,84.0,54.0,-100.00,WSW,247,14.0,-999.0,35,-99.99,,,-99.99,451.239990,,2013-05-21 21:54:00,
2013-05-21 18:00:00,84.0,55.0,-100.00,WSW,247,11.0,-999.0,37,-99.99,,,-99.99,452.399994,,2013-05-21 22:00:00,
2013-05-21 18:33:00,84.0,55.0,-100.00,WSW,247,11.0,-999.0,37,-99.99,,,-99.99,452.399994,,2013-05-21 22:33:00,
2013-05-21 18:42:00,84.0,55.0,-100.00,WSW,247,11.0,-999.0,37,-99.99,,,-99.99,452.399994,,2013-05-21 22:42:00,
2013-05-21 18:53:00,84.0,55.0,-100.00,WSW,247,11.0,-999.0,37,-99.99,,,-99.99,452.399994,,2013-05-21 22:53:00,
2013-05-21 19:00:00,83.0,54.0,-100.00,West,270,11.0,-999.0,37,-99.99,,,-99.99,245.919998,,2013-05-21 23:00:00,
2013-05-21 19:32:00,83.0,54.0,-100.00,West,270,11.0,-999.0,37,-99.99,,,-99.99,245.919998,,2013-05-21 23:32:00,
2013-05-21 19:42:00,83.0,54.0,-100.00,West,270,11.0,-999.0,37,-99.99,,,-99.99,245.919998,,2013-05-21 23:42:00,
2013-05-21 19:52:00,83.0,54.0,-100.00,West,270,11.0,-999.0,37,-99.99,,,-99.99,245.919998,,2013-05-21 23:52:00,
2013-05-21 21:00:00,79.0,55.0,-100.00,WSW,247,4.0,-999.0,44,-99.99,,,-99.99,26.680000,,2013-05-22 01:00:00,
2013-05-21 21:32:00,79.0,55.0,-100.00,WSW,247,4.0,-999.0,44,-99.99,,,-99.99,26.680000,,2013-05-22 01:32:00,
2013-05-21 21:42:00,79.0,55.0,-100.00,WSW,247,4.0,-999.0,44,-99.99,,,-99.99,26.680000,,2013-05-22 01:42:00,
2013-05-21 21:52:00,79.0,55.0,-100.00,WSW,247,4.0,-999.0,44,-99.99,,,-99.99,26.680000,,2013-05-22 01:52:00,
2013-05-21 22:00:00,77.0,56.0,-100.00,SW,225,4.0,-999.0,49,-99.99,,,-99.99,0.000000,,2013-05-22 02:00:00,
2013-05-21 22:32:00,77.0,56.0,-100.00,SW,225,4.0,-999.0,49,-99.99,,,-99.99,0.000000,,2013-05-22 02:32:00,
2013-05-21 22:42:00,77.0,56.0,-100.00,SW,225,4.0,-999.0,49,-99.99,,,-99.99,0.000000,,2013-05-22 02:42:00,
2013-05-21 22:52:00,77.0,56.0,-100.00,SW,225,4.0,-999.0,49,-99.99,,,-99.99,0.000000,,2013-05-22 02:52:00,
2013-05-21 23:00:00,73.0,58.0,-100.00,SW,225,2.0,-999.0,57,-99.99,,,-99.99,0.000000,,2013-05-22 03:00:00,
2013-05-21 23:33:00,73.0,58.0,-100.00,SW,225,2.0,-999.0,57,-99.99,,,-99.99,0.000000,,2013-05-22 03:33:00,
2013-05-21 23:43:00,73.0,58.0,-100.00,SW,225,2.0,-999.0,57,-99.99,,,-99.99,0.000000,,2013-05-22 03:43:00,
2013-05-21 23:53:00,73.0,58.0,-100.00,SW,225,2.0,-999.0,57,-99.99,,,-99.99,0.000000,,2013-05-22 03:53:00,